sensor_id;sensor_type;location;lat;lon;timestamp;temperature;humidity
2100;DHT22;1055;48.854;9.302;2023-03-01T00:01:18;1.10;99.90
2100;DHT22;1055;48.854;9.302;2023-03-01T00:03:44;1.10;99.90
2100;DHT22;1055;48.854;9.302;2023-03-01T00:06:11;1.00;99.90
2100;DHT22;1055;48.854;9.302;2023-03-01T00:08:39;1.10;99.90
2100;DHT22;1055;48.854;9.302;2023-03-01T00:11:15;1.00;99.90
2100;DHT22;1055;48.854;9.302;2023-03-01T00:13:42;1.00;99.90
2100;DHT22;1055;48.854;9.302;2023-03-01T00:16:21;0.90;99.90
2100;DHT22;1055;48.854;9.302;2023-03-01T00:18:48;0.70;99.90
2100;DHT22;1055;48.854;9.302;2023-03-01T00:21:17;0.60;99.90
2100;DHT22;1055;48.854;9.302;2023-03-01T00:23:46;0.90;99.90
2100;DHT22;1055;48.854;9.302;2023-03-01T00:26:15;1.00;99.90
2100;DHT22;1055;48.854;9.302;2023-03-01T00:28:43;0.80;99.90
2100;DHT22;1055;48.854;9.302;2023-03-01T00:31:16;0.70;99.90
2100;DHT22;1055;48.854;9.302;2023-03-01T00:33:43;0.90;99.90
2100;DHT22;1055;48.854;9.302;2023-03-01T00:36:13;0.90;99.90
2100;DHT22;1055;48.854;9.302;2023-03-01T00:38:42;0.90;99.90
2100;DHT22;1055;48.854;9.302;2023-03-01T00:41:15;0.80;99.90
2100;DHT22;1055;48.854;9.302;2023-03-01T00:43:43;0.80;99.90
2100;DHT22;1055;48.854;9.302;2023-03-01T00:46:12;0.90;99.90
2100;DHT22;1055;48.854;9.302;2023-03-01T00:48:39;1.00;99.90
2100;DHT22;1055;48.854;9.302;2023-03-01T00:51:19;1.00;99.90
2100;DHT22;1055;48.854;9.302;2023-03-01T00:53:47;0.70;99.90
2100;DHT22;1055;48.854;9.302;2023-03-01T00:56:17;0.50;99.90
2100;DHT22;1055;48.854;9.302;2023-03-01T00:58:45;0.30;99.90
2100;DHT22;1055;48.854;9.302;2023-03-01T01:01:14;0.50;99.90
2100;DHT22;1055;48.854;9.302;2023-03-01T01:03:49;0.30;99.90
2100;DHT22;1055;48.854;9.302;2023-03-01T01:06:17;0.50;99.90
2100;DHT22;1055;48.854;9.302;2023-03-01T01:08:43;0.40;99.90
2100;DHT22;1055;48.854;9.302;2023-03-01T01:11:11;0.50;99.90
2100;DHT22;1055;48.854;9.302;2023-03-01T01:13:38;0.50;99.90
2100;DHT22;1055;48.854;9.302;2023-03-01T01:16:05;0.60;99.90
2100;DHT22;1055;48.854;9.302;2023-03-01T01:18:30;0.80;99.90
2100;DHT22;1055;48.854;9.302;2023-03-01T01:20:56;0.50;99.90
2100;DHT22;1055;48.854;9.302;2023-03-01T01:23:22;0.70;99.90
2100;DHT22;1055;48.854;9.302;2023-03-01T01:25:47;0.60;99.90
2100;DHT22;1055;48.854;9.302;2023-03-01T01:28:13;0.60;99.90
2100;DHT22;1055;48.854;9.302;2023-03-01T01:30:38;0.70;99.90
2100;DHT22;1055;48.854;9.302;2023-03-01T01:33:04;0.70;99.90
2100;DHT22;1055;48.854;9.302;2023-03-01T01:35:30;0.40;99.90
2100;DHT22;1055;48.854;9.302;2023-03-01T01:37:55;0.30;99.90
2100;DHT22;1055;48.854;9.302;2023-03-01T01:40:21;0.10;99.90
2100;DHT22;1055;48.854;9.302;2023-03-01T01:42:46;0.00;99.90
2100;DHT22;1055;48.854;9.302;2023-03-01T01:47:51;0.00;99.90
2100;DHT22;1055;48.854;9.302;2023-03-01T01:50:18;-0.10;99.90
2100;DHT22;1055;48.854;9.302;2023-03-01T01:52:45;-0.30;99.90
2100;DHT22;1055;48.854;9.302;2023-03-01T01:55:17;-0.30;99.90
2100;DHT22;1055;48.854;9.302;2023-03-01T01:57:50;-0.10;99.90
2100;DHT22;1055;48.854;9.302;2023-03-01T02:00:22;0.00;99.90
2100;DHT22;1055;48.854;9.302;2023-03-01T02:02:51;0.10;99.90
2100;DHT22;1055;48.854;9.302;2023-03-01T02:05:39;-0.10;99.90
2100;DHT22;1055;48.854;9.302;2023-03-01T02:08:11;-0.20;99.90
2100;DHT22;1055;48.854;9.302;2023-03-01T02:10:37;-0.10;99.90
2100;DHT22;1055;48.854;9.302;2023-03-01T02:13:03;-0.10;99.90
2100;DHT22;1055;48.854;9.302;2023-03-01T02:15:33;-0.10;99.90
2100;DHT22;1055;48.854;9.302;2023-03-01T02:17:59;0.20;99.90
2100;DHT22;1055;48.854;9.302;2023-03-01T02:20:39;0.20;99.90
2100;DHT22;1055;48.854;9.302;2023-03-01T02:23:08;0.30;99.90
2100;DHT22;1055;48.854;9.302;2023-03-01T02:28:38;0.70;99.90
2100;DHT22;1055;48.854;9.302;2023-03-01T02:31:09;0.50;99.90
2100;DHT22;1055;48.854;9.302;2023-03-01T02:33:54;0.30;99.90
2100;DHT22;1055;48.854;9.302;2023-03-01T02:36:28;0.50;99.90
2100;DHT22;1055;48.854;9.302;2023-03-01T02:38:57;0.30;99.90
2100;DHT22;1055;48.854;9.302;2023-03-01T02:41:25;0.50;99.90
2100;DHT22;1055;48.854;9.302;2023-03-01T02:43:52;0.50;99.90
2100;DHT22;1055;48.854;9.302;2023-03-01T02:46:20;0.70;99.90
2100;DHT22;1055;48.854;9.302;2023-03-01T02:48:51;0.70;99.90
2100;DHT22;1055;48.854;9.302;2023-03-01T02:56:17;1.10;99.90
2100;DHT22;1055;48.854;9.302;2023-03-01T02:58:44;0.90;99.90
2100;DHT22;1055;48.854;9.302;2023-03-01T03:01:13;0.70;99.90
2100;DHT22;1055;48.854;9.302;2023-03-01T03:03:40;0.90;99.90
2100;DHT22;1055;48.854;9.302;2023-03-01T03:06:06;0.80;99.90
2100;DHT22;1055;48.854;9.302;2023-03-01T03:08:32;0.60;99.90
2100;DHT22;1055;48.854;9.302;2023-03-01T03:10:58;0.70;99.90
2100;DHT22;1055;48.854;9.302;2023-03-01T03:13:23;0.90;99.90
2100;DHT22;1055;48.854;9.302;2023-03-01T03:15:54;0.50;99.90
2100;DHT22;1055;48.854;9.302;2023-03-01T03:18:20;0.40;99.90
2100;DHT22;1055;48.854;9.302;2023-03-01T03:20:46;0.60;99.90
2100;DHT22;1055;48.854;9.302;2023-03-01T03:23:12;0.60;99.90
2100;DHT22;1055;48.854;9.302;2023-03-01T03:25:39;0.20;99.90
2100;DHT22;1055;48.854;9.302;2023-03-01T03:28:06;0.30;99.90
2100;DHT22;1055;48.854;9.302;2023-03-01T03:30:36;0.30;99.90
2100;DHT22;1055;48.854;9.302;2023-03-01T03:33:02;0.40;99.90
2100;DHT22;1055;48.854;9.302;2023-03-01T03:35:49;0.80;99.90
2100;DHT22;1055;48.854;9.302;2023-03-01T03:38:17;0.70;99.90
2100;DHT22;1055;48.854;9.302;2023-03-01T03:40:51;0.90;99.90
2100;DHT22;1055;48.854;9.302;2023-03-01T03:43:20;0.50;99.90
2100;DHT22;1055;48.854;9.302;2023-03-01T03:45:48;0.50;99.90
2100;DHT22;1055;48.854;9.302;2023-03-01T03:48:15;0.60;99.90
2100;DHT22;1055;48.854;9.302;2023-03-01T03:50:41;0.50;99.90
2100;DHT22;1055;48.854;9.302;2023-03-01T03:53:10;0.40;99.90
2100;DHT22;1055;48.854;9.302;2023-03-01T03:55:42;0.40;99.90
2100;DHT22;1055;48.854;9.302;2023-03-01T03:58:10;0.30;99.90
2100;DHT22;1055;48.854;9.302;2023-03-01T04:00:38;0.30;99.90
2100;DHT22;1055;48.854;9.302;2023-03-01T04:03:04;0.30;99.90
2100;DHT22;1055;48.854;9.302;2023-03-01T04:05:30;0.30;99.90
2100;DHT22;1055;48.854;9.302;2023-03-01T04:07:56;0.30;99.90
2100;DHT22;1055;48.854;9.302;2023-03-01T04:10:34;0.30;99.90
2100;DHT22;1055;48.854;9.302;2023-03-01T04:13:00;0.30;99.90
2100;DHT22;1055;48.854;9.302;2023-03-01T04:15:27;0.60;99.90
2100;DHT22;1055;48.854;9.302;2023-03-01T04:17:53;0.70;99.90
2100;DHT22;1055;48.854;9.302;2023-03-01T04:20:22;1.10;99.90
2100;DHT22;1055;48.854;9.302;2023-03-01T04:22:58;1.00;99.90
2100;DHT22;1055;48.854;9.302;2023-03-01T04:25:24;1.00;99.90
2100;DHT22;1055;48.854;9.302;2023-03-01T04:27:50;1.30;99.90
2100;DHT22;1055;48.854;9.302;2023-03-01T04:30:16;1.40;99.90
2100;DHT22;1055;48.854;9.302;2023-03-01T04:32:42;1.40;99.90
2100;DHT22;1055;48.854;9.302;2023-03-01T04:35:08;1.40;99.90
2100;DHT22;1055;48.854;9.302;2023-03-01T04:37:34;1.40;99.90
2100;DHT22;1055;48.854;9.302;2023-03-01T04:40:01;1.50;99.90
2100;DHT22;1055;48.854;9.302;2023-03-01T04:42:26;1.80;99.90
2100;DHT22;1055;48.854;9.302;2023-03-01T04:44:52;2.10;99.90
2100;DHT22;1055;48.854;9.302;2023-03-01T04:47:18;2.10;99.90
2100;DHT22;1055;48.854;9.302;2023-03-01T04:49:43;2.40;99.90
2100;DHT22;1055;48.854;9.302;2023-03-01T04:52:09;2.40;99.90
2100;DHT22;1055;48.854;9.302;2023-03-01T04:54:35;2.00;99.90
2100;DHT22;1055;48.854;9.302;2023-03-01T04:57:02;2.00;99.90
2100;DHT22;1055;48.854;9.302;2023-03-01T04:59:28;1.70;99.90
2100;DHT22;1055;48.854;9.302;2023-03-01T05:01:55;1.90;99.90
2100;DHT22;1055;48.854;9.302;2023-03-01T05:04:22;2.00;99.90
2100;DHT22;1055;48.854;9.302;2023-03-01T05:06:48;2.00;99.90
2100;DHT22;1055;48.854;9.302;2023-03-01T05:09:13;1.80;99.90
2100;DHT22;1055;48.854;9.302;2023-03-01T05:11:39;2.10;99.90
2100;DHT22;1055;48.854;9.302;2023-03-01T05:14:06;2.00;99.90
2100;DHT22;1055;48.854;9.302;2023-03-01T05:16:32;1.80;99.90
2100;DHT22;1055;48.854;9.302;2023-03-01T05:18:58;1.50;99.90
2100;DHT22;1055;48.854;9.302;2023-03-01T05:21:25;1.20;99.90
2100;DHT22;1055;48.854;9.302;2023-03-01T05:23:51;1.40;99.90
2100;DHT22;1055;48.854;9.302;2023-03-01T05:26:19;1.40;99.90
2100;DHT22;1055;48.854;9.302;2023-03-01T05:28:47;1.00;99.90
2100;DHT22;1055;48.854;9.302;2023-03-01T05:31:13;0.90;99.90
2100;DHT22;1055;48.854;9.302;2023-03-01T05:33:40;0.80;99.90
2100;DHT22;1055;48.854;9.302;2023-03-01T05:36:07;0.90;99.90
2100;DHT22;1055;48.854;9.302;2023-03-01T05:38:34;0.70;99.90
2100;DHT22;1055;48.854;9.302;2023-03-01T05:40:59;0.80;99.90
2100;DHT22;1055;48.854;9.302;2023-03-01T05:43:25;0.70;99.90
2100;DHT22;1055;48.854;9.302;2023-03-01T05:45:51;0.80;99.90
2100;DHT22;1055;48.854;9.302;2023-03-01T05:48:17;0.80;99.90
2100;DHT22;1055;48.854;9.302;2023-03-01T05:50:45;0.90;99.90
2100;DHT22;1055;48.854;9.302;2023-03-01T05:53:17;0.80;99.90
2100;DHT22;1055;48.854;9.302;2023-03-01T05:55:44;1.00;99.90
2100;DHT22;1055;48.854;9.302;2023-03-01T05:58:14;0.70;99.90
2100;DHT22;1055;48.854;9.302;2023-03-01T06:00:41;0.80;99.90
2100;DHT22;1055;48.854;9.302;2023-03-01T06:03:10;0.90;99.90
2100;DHT22;1055;48.854;9.302;2023-03-01T06:05:36;0.70;99.90
2100;DHT22;1055;48.854;9.302;2023-03-01T06:08:02;1.00;99.90
2100;DHT22;1055;48.854;9.302;2023-03-01T06:10:28;1.20;99.90
2100;DHT22;1055;48.854;9.302;2023-03-01T06:12:54;1.10;99.90
2100;DHT22;1055;48.854;9.302;2023-03-01T06:15:20;0.90;99.90
2100;DHT22;1055;48.854;9.302;2023-03-01T06:17:46;0.90;99.90
2100;DHT22;1055;48.854;9.302;2023-03-01T06:20:21;0.70;99.90
2100;DHT22;1055;48.854;9.302;2023-03-01T06:22:47;0.60;99.90
2100;DHT22;1055;48.854;9.302;2023-03-01T06:25:17;0.70;99.90
2100;DHT22;1055;48.854;9.302;2023-03-01T06:27:43;0.80;99.90
2100;DHT22;1055;48.854;9.302;2023-03-01T06:30:10;0.80;99.90
2100;DHT22;1055;48.854;9.302;2023-03-01T06:32:37;0.80;99.90
2100;DHT22;1055;48.854;9.302;2023-03-01T06:35:04;0.70;99.90
2100;DHT22;1055;48.854;9.302;2023-03-01T06:37:29;0.50;99.90
2100;DHT22;1055;48.854;9.302;2023-03-01T06:39:55;0.70;99.90
2100;DHT22;1055;48.854;9.302;2023-03-01T06:42:21;0.30;99.90
2100;DHT22;1055;48.854;9.302;2023-03-01T06:44:46;0.40;99.90
2100;DHT22;1055;48.854;9.302;2023-03-01T06:47:12;0.30;99.90
2100;DHT22;1055;48.854;9.302;2023-03-01T06:49:38;0.40;99.90
2100;DHT22;1055;48.854;9.302;2023-03-01T06:52:03;0.30;99.90
2100;DHT22;1055;48.854;9.302;2023-03-01T06:54:29;0.00;99.90
2100;DHT22;1055;48.854;9.302;2023-03-01T06:56:55;0.00;99.90
2100;DHT22;1055;48.854;9.302;2023-03-01T06:59:21;0.00;99.90
2100;DHT22;1055;48.854;9.302;2023-03-01T07:01:46;0.10;99.90
2100;DHT22;1055;48.854;9.302;2023-03-01T07:04:13;0.10;99.90
2100;DHT22;1055;48.854;9.302;2023-03-01T07:06:39;0.20;99.90
2100;DHT22;1055;48.854;9.302;2023-03-01T07:09:05;0.00;99.90
2100;DHT22;1055;48.854;9.302;2023-03-01T07:11:31;0.00;99.90
2100;DHT22;1055;48.854;9.302;2023-03-01T07:13:56;-0.10;99.90
2100;DHT22;1055;48.854;9.302;2023-03-01T07:16:23;-0.10;99.90
2100;DHT22;1055;48.854;9.302;2023-03-01T07:18:49;-0.20;99.90
2100;DHT22;1055;48.854;9.302;2023-03-01T07:21:15;0.10;99.90
2100;DHT22;1055;48.854;9.302;2023-03-01T07:23:42;0.30;99.90
2100;DHT22;1055;48.854;9.302;2023-03-01T07:26:07;0.40;99.90
2100;DHT22;1055;48.854;9.302;2023-03-01T07:28:33;0.20;99.90
2100;DHT22;1055;48.854;9.302;2023-03-01T07:31:02;0.00;99.90
2100;DHT22;1055;48.854;9.302;2023-03-01T07:33:28;0.40;99.90
2100;DHT22;1055;48.854;9.302;2023-03-01T07:35:59;0.20;99.90
2100;DHT22;1055;48.854;9.302;2023-03-01T07:38:25;0.20;99.90
2100;DHT22;1055;48.854;9.302;2023-03-01T07:40:51;0.10;99.90
2100;DHT22;1055;48.854;9.302;2023-03-01T07:43:17;0.10;99.90
2100;DHT22;1055;48.854;9.302;2023-03-01T07:45:43;0.40;99.90
2100;DHT22;1055;48.854;9.302;2023-03-01T07:48:09;0.60;99.90
2100;DHT22;1055;48.854;9.302;2023-03-01T07:50:35;0.30;99.90
2100;DHT22;1055;48.854;9.302;2023-03-01T07:53:00;0.40;99.90
2100;DHT22;1055;48.854;9.302;2023-03-01T07:55:26;0.70;99.90
2100;DHT22;1055;48.854;9.302;2023-03-01T07:57:56;0.80;99.90
2100;DHT22;1055;48.854;9.302;2023-03-01T08:00:25;1.10;99.90
2100;DHT22;1055;48.854;9.302;2023-03-01T08:02:50;1.00;99.90
2100;DHT22;1055;48.854;9.302;2023-03-01T08:05:16;0.80;99.90
2100;DHT22;1055;48.854;9.302;2023-03-01T08:07:42;0.60;99.90
2100;DHT22;1055;48.854;9.302;2023-03-01T08:10:08;0.80;99.90
2100;DHT22;1055;48.854;9.302;2023-03-01T08:12:34;0.90;99.90
2100;DHT22;1055;48.854;9.302;2023-03-01T08:14:59;1.10;99.90
2100;DHT22;1055;48.854;9.302;2023-03-01T08:17:25;1.10;99.90
2100;DHT22;1055;48.854;9.302;2023-03-01T08:19:50;1.20;99.90
2100;DHT22;1055;48.854;9.302;2023-03-01T08:22:16;1.10;99.90
2100;DHT22;1055;48.854;9.302;2023-03-01T08:24:42;1.20;99.90
2100;DHT22;1055;48.854;9.302;2023-03-01T08:27:07;1.20;99.90
2100;DHT22;1055;48.854;9.302;2023-03-01T08:29:34;1.20;99.90
2100;DHT22;1055;48.854;9.302;2023-03-01T08:32:00;1.40;99.90
2100;DHT22;1055;48.854;9.302;2023-03-01T08:34:26;1.50;99.90
2100;DHT22;1055;48.854;9.302;2023-03-01T08:36:52;1.30;99.90
2100;DHT22;1055;48.854;9.302;2023-03-01T08:39:19;1.40;99.90
2100;DHT22;1055;48.854;9.302;2023-03-01T08:41:46;1.60;99.90
2100;DHT22;1055;48.854;9.302;2023-03-01T08:44:13;1.60;99.90
2100;DHT22;1055;48.854;9.302;2023-03-01T08:46:40;1.70;99.90
2100;DHT22;1055;48.854;9.302;2023-03-01T08:49:15;1.60;99.90
2100;DHT22;1055;48.854;9.302;2023-03-01T08:51:42;1.70;99.90
2100;DHT22;1055;48.854;9.302;2023-03-01T08:54:13;1.70;99.90
2100;DHT22;1055;48.854;9.302;2023-03-01T08:56:40;1.80;99.90
2100;DHT22;1055;48.854;9.302;2023-03-01T08:59:06;1.90;99.90
2100;DHT22;1055;48.854;9.302;2023-03-01T09:01:32;1.90;99.90
2100;DHT22;1055;48.854;9.302;2023-03-01T09:03:57;2.10;99.90
2100;DHT22;1055;48.854;9.302;2023-03-01T09:06:23;2.10;99.90
2100;DHT22;1055;48.854;9.302;2023-03-01T09:08:50;2.20;99.90
2100;DHT22;1055;48.854;9.302;2023-03-01T09:11:18;2.30;99.90
2100;DHT22;1055;48.854;9.302;2023-03-01T09:13:45;2.20;99.90
2100;DHT22;1055;48.854;9.302;2023-03-01T09:16:12;2.20;99.90
2100;DHT22;1055;48.854;9.302;2023-03-01T09:18:38;2.30;99.90
2100;DHT22;1055;48.854;9.302;2023-03-01T09:21:07;2.40;99.90
2100;DHT22;1055;48.854;9.302;2023-03-01T09:23:34;2.40;99.90
2100;DHT22;1055;48.854;9.302;2023-03-01T09:26:02;2.50;99.90
2100;DHT22;1055;48.854;9.302;2023-03-01T09:28:28;2.60;99.90
2100;DHT22;1055;48.854;9.302;2023-03-01T09:30:53;2.80;99.90
2100;DHT22;1055;48.854;9.302;2023-03-01T09:33:19;3.00;99.90
2100;DHT22;1055;48.854;9.302;2023-03-01T09:35:44;3.20;99.90
2100;DHT22;1055;48.854;9.302;2023-03-01T09:38:13;3.30;99.90
2100;DHT22;1055;48.854;9.302;2023-03-01T09:40:43;3.40;99.90
2100;DHT22;1055;48.854;9.302;2023-03-01T09:43:31;3.40;99.90
2100;DHT22;1055;48.854;9.302;2023-03-01T09:46:03;3.40;99.90
2100;DHT22;1055;48.854;9.302;2023-03-01T09:48:37;3.50;99.90
2100;DHT22;1055;48.854;9.302;2023-03-01T09:51:08;3.50;99.90
2100;DHT22;1055;48.854;9.302;2023-03-01T09:53:34;3.60;99.90
2100;DHT22;1055;48.854;9.302;2023-03-01T09:56:22;3.60;99.90
2100;DHT22;1055;48.854;9.302;2023-03-01T09:59:13;3.50;99.90
2100;DHT22;1055;48.854;9.302;2023-03-01T10:04:54;3.60;99.90
2100;DHT22;1055;48.854;9.302;2023-03-01T10:10:01;3.70;99.90
2100;DHT22;1055;48.854;9.302;2023-03-01T10:12:35;3.70;99.90
2100;DHT22;1055;48.854;9.302;2023-03-01T10:15:36;3.90;99.90
2100;DHT22;1055;48.854;9.302;2023-03-01T10:17:56;3.80;99.90
2100;DHT22;1055;48.854;9.302;2023-03-01T10:20:25;3.90;99.90
2100;DHT22;1055;48.854;9.302;2023-03-01T10:22:52;3.90;99.90
2100;DHT22;1055;48.854;9.302;2023-03-01T10:28:31;4.20;99.90
2100;DHT22;1055;48.854;9.302;2023-03-01T10:31:02;4.10;99.90
2100;DHT22;1055;48.854;9.302;2023-03-01T10:33:31;4.10;99.90
2100;DHT22;1055;48.854;9.302;2023-03-01T10:35:57;4.30;99.90
2100;DHT22;1055;48.854;9.302;2023-03-01T10:38:23;4.50;99.90
2100;DHT22;1055;48.854;9.302;2023-03-01T10:40:59;4.60;99.90
2100;DHT22;1055;48.854;9.302;2023-03-01T10:43:32;4.70;99.90
2100;DHT22;1055;48.854;9.302;2023-03-01T10:46:29;4.80;99.90
2100;DHT22;1055;48.854;9.302;2023-03-01T10:49:16;4.60;99.90
2100;DHT22;1055;48.854;9.302;2023-03-01T10:51:45;4.80;99.90
2100;DHT22;1055;48.854;9.302;2023-03-01T10:54:31;4.90;99.90
2100;DHT22;1055;48.854;9.302;2023-03-01T10:57:00;4.90;99.90
2100;DHT22;1055;48.854;9.302;2023-03-01T10:59:36;5.00;99.90
2100;DHT22;1055;48.854;9.302;2023-03-01T11:05:20;5.10;99.90
2100;DHT22;1055;48.854;9.302;2023-03-01T11:10:27;5.40;99.90
2100;DHT22;1055;48.854;9.302;2023-03-01T11:12:54;5.40;99.90
2100;DHT22;1055;48.854;9.302;2023-03-01T11:15:30;5.40;99.90
2100;DHT22;1055;48.854;9.302;2023-03-01T11:17:56;5.50;99.90
2100;DHT22;1055;48.854;9.302;2023-03-01T11:22:58;5.70;99.90
2100;DHT22;1055;48.854;9.302;2023-03-01T11:25:34;5.70;99.90
2100;DHT22;1055;48.854;9.302;2023-03-01T11:28:03;5.70;99.90
2100;DHT22;1055;48.854;9.302;2023-03-01T11:30:34;5.80;99.90
2100;DHT22;1055;48.854;9.302;2023-03-01T11:33:04;6.00;99.90
2100;DHT22;1055;48.854;9.302;2023-03-01T11:35:32;6.10;99.90
2100;DHT22;1055;48.854;9.302;2023-03-01T11:38:04;6.10;99.90
2100;DHT22;1055;48.854;9.302;2023-03-01T11:40:47;6.10;99.90
2100;DHT22;1055;48.854;9.302;2023-03-01T11:46:14;6.10;99.30
2100;DHT22;1055;48.854;9.302;2023-03-01T12:10:48;7.10;96.90
2100;DHT22;1055;48.854;9.302;2023-03-01T12:13:51;7.10;96.10
2100;DHT22;1055;48.854;9.302;2023-03-01T12:16:27;7.10;95.30
2100;DHT22;1055;48.854;9.302;2023-03-01T12:41:58;8.60;91.20
2100;DHT22;1055;48.854;9.302;2023-03-01T12:44:52;8.70;91.60
2100;DHT22;1055;48.854;9.302;2023-03-01T12:50:52;8.80;90.90
2100;DHT22;1055;48.854;9.302;2023-03-01T12:53:29;8.90;90.50
2100;DHT22;1055;48.854;9.302;2023-03-01T12:56:01;9.30;89.10
2100;DHT22;1055;48.854;9.302;2023-03-01T13:04:35;9.60;86.00
2100;DHT22;1055;48.854;9.302;2023-03-01T13:07:19;9.20;84.80
2100;DHT22;1055;48.854;9.302;2023-03-01T13:13:00;9.30;82.50
2100;DHT22;1055;48.854;9.302;2023-03-01T13:15:35;9.50;85.30
2100;DHT22;1055;48.854;9.302;2023-03-01T13:20:52;9.90;86.70
2100;DHT22;1055;48.854;9.302;2023-03-01T13:26:17;10.40;80.60
2100;DHT22;1055;48.854;9.302;2023-03-01T13:28:50;10.40;80.30
2100;DHT22;1055;48.854;9.302;2023-03-01T13:33:58;10.40;80.60
2100;DHT22;1055;48.854;9.302;2023-03-01T13:39:05;10.40;80.80
2100;DHT22;1055;48.854;9.302;2023-03-01T13:41:53;10.40;79.10
2100;DHT22;1055;48.854;9.302;2023-03-01T13:44:32;10.40;78.90
2100;DHT22;1055;48.854;9.302;2023-03-01T13:47:14;9.70;79.20
2100;DHT22;1055;48.854;9.302;2023-03-01T13:49:52;10.70;80.30
2100;DHT22;1055;48.854;9.302;2023-03-01T13:52:42;10.90;79.60
2100;DHT22;1055;48.854;9.302;2023-03-01T13:57:48;9.30;79.50
2100;DHT22;1055;48.854;9.302;2023-03-01T14:00:38;10.10;79.40
2100;DHT22;1055;48.854;9.302;2023-03-01T14:03:12;10.20;78.40
2100;DHT22;1055;48.854;9.302;2023-03-01T14:05:40;9.70;80.20
2100;DHT22;1055;48.854;9.302;2023-03-01T14:08:19;10.00;80.20
2100;DHT22;1055;48.854;9.302;2023-03-01T14:16:40;10.00;82.80
2100;DHT22;1055;48.854;9.302;2023-03-01T14:19:23;10.00;81.00
2100;DHT22;1055;48.854;9.302;2023-03-01T14:24:59;10.30;78.30
2100;DHT22;1055;48.854;9.302;2023-03-01T14:27:39;10.20;79.10
2100;DHT22;1055;48.854;9.302;2023-03-01T14:30:34;10.10;79.60
2100;DHT22;1055;48.854;9.302;2023-03-01T14:33:04;10.30;78.70
2100;DHT22;1055;48.854;9.302;2023-03-01T14:35:34;10.30;77.50
2100;DHT22;1055;48.854;9.302;2023-03-01T14:38:00;10.60;77.40
2100;DHT22;1055;48.854;9.302;2023-03-01T14:40:33;10.70;76.80
2100;DHT22;1055;48.854;9.302;2023-03-01T14:43:01;10.70;75.80
2100;DHT22;1055;48.854;9.302;2023-03-01T14:45:29;10.40;75.90
2100;DHT22;1055;48.854;9.302;2023-03-01T14:47:59;10.80;77.40
2100;DHT22;1055;48.854;9.302;2023-03-01T14:50:32;10.30;75.20
2100;DHT22;1055;48.854;9.302;2023-03-01T14:53:05;10.30;77.80
2100;DHT22;1055;48.854;9.302;2023-03-01T14:55:36;10.20;77.80
2100;DHT22;1055;48.854;9.302;2023-03-01T14:58:04;10.30;78.60
2100;DHT22;1055;48.854;9.302;2023-03-01T15:00:32;9.80;79.20
2100;DHT22;1055;48.854;9.302;2023-03-01T15:03:13;10.50;78.70
2100;DHT22;1055;48.854;9.302;2023-03-01T15:05:44;10.90;77.50
2100;DHT22;1055;48.854;9.302;2023-03-01T15:08:24;11.00;75.20
2100;DHT22;1055;48.854;9.302;2023-03-01T15:11:29;10.70;75.10
2100;DHT22;1055;48.854;9.302;2023-03-01T15:13:55;11.00;74.80
2100;DHT22;1055;48.854;9.302;2023-03-01T15:16:26;11.10;75.40
2100;DHT22;1055;48.854;9.302;2023-03-01T15:21:25;10.40;76.60
2100;DHT22;1055;48.854;9.302;2023-03-01T15:26:58;10.20;76.40
2100;DHT22;1055;48.854;9.302;2023-03-01T15:29:30;10.00;76.70
2100;DHT22;1055;48.854;9.302;2023-03-01T15:32:00;10.00;75.80
2100;DHT22;1055;48.854;9.302;2023-03-01T15:34:32;10.10;74.70
2100;DHT22;1055;48.854;9.302;2023-03-01T15:37:01;9.70;76.60
2100;DHT22;1055;48.854;9.302;2023-03-01T15:39:40;9.80;77.20
2100;DHT22;1055;48.854;9.302;2023-03-01T15:42:11;10.00;76.10
2100;DHT22;1055;48.854;9.302;2023-03-01T15:44:43;9.50;77.50
2100;DHT22;1055;48.854;9.302;2023-03-01T15:47:30;9.90;77.10
2100;DHT22;1055;48.854;9.302;2023-03-01T15:49:58;9.30;76.70
2100;DHT22;1055;48.854;9.302;2023-03-01T15:54:59;9.20;78.10
2100;DHT22;1055;48.854;9.302;2023-03-01T15:57:26;9.50;78.70
2100;DHT22;1055;48.854;9.302;2023-03-01T15:59:52;9.60;77.00
2100;DHT22;1055;48.854;9.302;2023-03-01T16:02:23;9.00;76.60
2100;DHT22;1055;48.854;9.302;2023-03-01T16:04:50;9.80;78.10
2100;DHT22;1055;48.854;9.302;2023-03-01T16:07:16;9.30;76.70
2100;DHT22;1055;48.854;9.302;2023-03-01T16:09:44;9.80;78.10
2100;DHT22;1055;48.854;9.302;2023-03-01T16:12:16;10.00;75.90
2100;DHT22;1055;48.854;9.302;2023-03-01T16:14:43;9.90;77.20
2100;DHT22;1055;48.854;9.302;2023-03-01T16:17:10;9.90;76.10
2100;DHT22;1055;48.854;9.302;2023-03-01T16:19:37;9.70;75.80
2100;DHT22;1055;48.854;9.302;2023-03-01T16:22:05;9.30;76.20
2100;DHT22;1055;48.854;9.302;2023-03-01T16:24:31;9.40;76.90
2100;DHT22;1055;48.854;9.302;2023-03-01T16:26:58;9.70;77.50
2100;DHT22;1055;48.854;9.302;2023-03-01T16:29:25;9.40;76.70
2100;DHT22;1055;48.854;9.302;2023-03-01T16:31:52;9.30;76.70
2100;DHT22;1055;48.854;9.302;2023-03-01T16:34:20;9.30;77.80
2100;DHT22;1055;48.854;9.302;2023-03-01T16:36:48;9.10;78.00
2100;DHT22;1055;48.854;9.302;2023-03-01T16:39:18;8.60;78.90
2100;DHT22;1055;48.854;9.302;2023-03-01T16:41:45;8.90;79.30
2100;DHT22;1055;48.854;9.302;2023-03-01T16:44:12;8.40;79.20
2100;DHT22;1055;48.854;9.302;2023-03-01T16:46:42;8.30;79.50
2100;DHT22;1055;48.854;9.302;2023-03-01T16:49:09;8.40;80.80
2100;DHT22;1055;48.854;9.302;2023-03-01T16:51:36;8.40;80.10
2100;DHT22;1055;48.854;9.302;2023-03-01T16:54:02;8.20;79.80
2100;DHT22;1055;48.854;9.302;2023-03-01T16:56:31;8.40;79.90
2100;DHT22;1055;48.854;9.302;2023-03-01T16:59:03;8.20;79.90
2100;DHT22;1055;48.854;9.302;2023-03-01T17:01:30;8.30;80.20
2100;DHT22;1055;48.854;9.302;2023-03-01T17:04:03;8.30;81.00
2100;DHT22;1055;48.854;9.302;2023-03-01T17:06:29;8.30;81.50
2100;DHT22;1055;48.854;9.302;2023-03-01T17:08:58;8.40;80.90
2100;DHT22;1055;48.854;9.302;2023-03-01T17:11:25;8.40;81.10
2100;DHT22;1055;48.854;9.302;2023-03-01T17:13:51;8.30;81.10
2100;DHT22;1055;48.854;9.302;2023-03-01T17:16:20;8.30;81.30
2100;DHT22;1055;48.854;9.302;2023-03-01T17:18:48;8.30;81.30
2100;DHT22;1055;48.854;9.302;2023-03-01T17:21:20;8.40;81.40
2100;DHT22;1055;48.854;9.302;2023-03-01T17:23:48;8.30;81.60
2100;DHT22;1055;48.854;9.302;2023-03-01T17:26:15;8.40;81.40
2100;DHT22;1055;48.854;9.302;2023-03-01T17:28:42;8.50;81.30
2100;DHT22;1055;48.854;9.302;2023-03-01T17:31:10;8.40;82.00
2100;DHT22;1055;48.854;9.302;2023-03-01T17:33:37;8.50;81.60
2100;DHT22;1055;48.854;9.302;2023-03-01T17:36:04;8.40;81.60
2100;DHT22;1055;48.854;9.302;2023-03-01T17:38:30;8.40;82.20
2100;DHT22;1055;48.854;9.302;2023-03-01T17:41:00;8.10;82.80
2100;DHT22;1055;48.854;9.302;2023-03-01T17:43:26;8.10;82.40
2100;DHT22;1055;48.854;9.302;2023-03-01T17:45:53;8.00;82.70
2100;DHT22;1055;48.854;9.302;2023-03-01T17:48:21;7.90;83.00
2100;DHT22;1055;48.854;9.302;2023-03-01T17:50:51;7.80;83.30
2100;DHT22;1055;48.854;9.302;2023-03-01T17:53:20;7.80;83.30
2100;DHT22;1055;48.854;9.302;2023-03-01T17:55:47;7.70;84.50
2100;DHT22;1055;48.854;9.302;2023-03-01T17:58:19;7.60;83.80
2100;DHT22;1055;48.854;9.302;2023-03-01T18:00:49;7.70;83.90
2100;DHT22;1055;48.854;9.302;2023-03-01T18:03:26;7.50;83.80
2100;DHT22;1055;48.854;9.302;2023-03-01T18:05:54;7.60;84.20
2100;DHT22;1055;48.854;9.302;2023-03-01T18:08:25;7.60;84.00
2100;DHT22;1055;48.854;9.302;2023-03-01T18:10:59;7.50;84.50
2100;DHT22;1055;48.854;9.302;2023-03-01T18:13:26;7.50;85.20
2100;DHT22;1055;48.854;9.302;2023-03-01T18:15:53;7.30;85.60
2100;DHT22;1055;48.854;9.302;2023-03-01T18:18:26;7.20;85.40
2100;DHT22;1055;48.854;9.302;2023-03-01T18:20:56;7.20;85.70
2100;DHT22;1055;48.854;9.302;2023-03-01T18:23:22;7.20;86.00
2100;DHT22;1055;48.854;9.302;2023-03-01T18:25:48;7.10;86.20
2100;DHT22;1055;48.854;9.302;2023-03-01T18:28:15;7.00;86.50